Time;durP1;ratioP1;P1;durP2;ratioP2;P2;SDS_P1;SDS_P2;PMS_P1;PMS_P2;Temp;Humidity;BMP_temperature;BMP_pressure;BME280_temperature;BME280_humidity;BME280_pressure;Samples;Min_cycle;Max_cycle;Signal;HPM_P1;HPM_P2
2023/05/04 00:01:40;;;;;;;15.27;11.02;;;;;;;11.23;65.23;95136.53;5042724;28;20107;-73
2023/05/04 00:04:06;;;;;;;13.18;10.93;;;;;;;11.32;65.17;95137.44;5042536;28;20033;-73
2023/05/04 00:06:31;;;;;;;11.57;9.60;;;;;;;11.33;65.11;95138.22;5043476;28;20086;-73
2023/05/04 00:08:57;;;;;;;10.60;9.45;;;;;;;11.36;65.07;95135.38;5042878;28;20021;-72
2023/05/04 00:11:22;;;;;;;11.95;9.35;;;;;;;11.38;65.37;95132.19;5048982;28;20029;-75
2023/05/04 00:13:47;;;;;;;11.85;8.90;;;;;;;11.37;65.55;95125.91;5043670;28;20060;-73
2023/05/04 00:16:13;;;;;;;12.18;9.30;;;;;;;11.39;65.45;95123.47;5045272;28;20487;-73
2023/05/04 00:18:38;;;;;;;13.90;9.85;;;;;;;11.44;65.16;95116.66;5043229;28;20569;-73
2023/05/04 00:21:04;;;;;;;11.88;9.20;;;;;;;11.41;65.27;95125.78;5042750;28;20112;-73
2023/05/04 00:23:29;;;;;;;11.40;8.95;;;;;;;11.35;65.38;95125.56;5044358;28;20438;-73
2023/05/04 00:25:57;;;;;;;10.27;8.73;;;;;;;11.41;65.36;95132.09;5041984;28;20033;-74
2023/05/04 00:28:23;;;;;;;9.98;8.35;;;;;;;11.40;65.33;95133.28;5047152;28;20479;-76
2023/05/04 00:30:48;;;;;;;10.35;7.53;;;;;;;11.34;65.58;95124.00;5046282;28;20044;-73
2023/05/04 00:33:13;;;;;;;9.18;7.63;;;;;;;11.35;65.28;95122.03;5047317;28;20033;-74
2023/05/04 00:35:39;;;;;;;11.10;7.82;;;;;;;11.30;65.46;95117.09;5046819;28;20061;-74
2023/05/04 00:38:04;;;;;;;11.23;7.90;;;;;;;11.33;65.54;95121.72;5048079;28;20101;-74
2023/05/04 00:40:29;;;;;;;10.25;8.52;;;;;;;11.10;65.72;95109.00;5045798;28;20021;-74
2023/05/04 00:42:55;;;;;;;9.85;7.70;;;;;;;10.64;66.79;95111.00;5047301;28;20032;-74
2023/05/04 00:45:20;;;;;;;10.30;8.15;;;;;;;10.77;66.75;95122.84;5029999;28;20024;-74
2023/05/04 00:47:47;;;;;;;10.18;7.95;;;;;;;10.98;66.03;95118.75;5045295;28;20398;-74
2023/05/04 00:50:13;;;;;;;10.32;8.18;;;;;;;10.95;65.83;95127.84;5046793;28;20041;-75
2023/05/04 00:52:40;;;;;;;11.27;8.88;;;;;;;10.93;65.64;95124.00;5046111;28;20096;-73
2023/05/04 00:55:06;;;;;;;9.65;7.95;;;;;;;10.99;65.32;95123.03;5048396;28;20488;-73
2023/05/04 00:57:31;;;;;;;13.27;8.20;;;;;;;10.98;65.12;95121.50;5045307;28;20031;-74
2023/05/04 00:59:57;;;;;;;11.15;8.70;;;;;;;11.16;64.76;95121.00;5046050;28;20112;-73
2023/05/04 01:02:22;;;;;;;10.70;8.50;;;;;;;11.19;64.71;95117.38;5047358;28;20051;-74
2023/05/04 01:04:48;;;;;;;15.95;9.23;;;;;;;11.02;64.63;95118.66;5047718;28;20040;-75
2023/05/04 01:07:26;;;;;;;11.27;8.77;;;;;;;11.04;64.84;95121.75;5048909;28;21326;-75
2023/05/04 01:10:01;;;;;;;12.70;9.25;;;;;;;10.92;65.05;95109.47;5044409;28;20112;-73
2023/05/04 01:12:33;;;;;;;11.70;9.27;;;;;;;10.90;65.43;95125.66;5046579;28;20523;-75
2023/05/04 01:14:59;;;;;;;11.88;9.60;;;;;;;10.98;65.36;95117.97;5044706;28;20139;-73
2023/05/04 01:17:25;;;;;;;13.82;10.52;;;;;;;10.95;65.50;95113.34;5046177;28;20047;-74
2023/05/04 01:19:52;;;;;;;14.02;9.57;;;;;;;10.96;65.76;95104.66;5046238;28;20494;-74
2023/05/04 01:22:18;;;;;;;14.77;10.02;;;;;;;11.06;65.67;95106.31;5045905;28;20420;-74
2023/05/04 01:24:44;;;;;;;14.07;10.73;;;;;;;11.12;65.51;95110.09;5046437;28;20032;-74
2023/05/04 01:27:22;;;;;;;13.77;11.18;;;;;;;11.16;65.37;95118.25;5043864;28;20037;-73
2023/05/04 01:29:56;;;;;;;13.43;9.98;;;;;;;11.21;65.14;95103.97;5046329;28;20025;-75
2023/05/04 01:32:22;;;;;;;12.77;10.73;;;;;;;11.21;65.01;95105.94;5044763;28;20031;-74
2023/05/04 01:34:47;;;;;;;15.25;10.57;;;;;;;11.19;65.38;95102.88;5045308;28;20024;-74
2023/05/04 01:37:12;;;;;;;13.50;9.50;;;;;;;11.27;64.93;95096.69;5045664;28;20407;-74
2023/05/04 01:39:38;;;;;;;13.73;10.15;;;;;;;11.19;65.20;95100.13;5044896;28;20017;-74
2023/05/04 01:42:03;;;;;;;15.30;11.20;;;;;;;11.22;65.13;95097.25;5047356;28;20400;-73
2023/05/04 01:44:29;;;;;;;13.77;10.60;;;;;;;11.22;65.32;95091.72;5043841;28;20037;-74
2023/05/04 01:46:55;;;;;;;15.38;11.50;;;;;;;11.30;64.98;95090.34;5047504;28;20406;-73
2023/05/04 01:49:21;;;;;;;13.30;11.50;;;;;;;11.36;64.72;95087.81;5043880;28;20583;-73
2023/05/04 01:51:48;;;;;;;13.32;11.30;;;;;;;11.43;64.60;95088.38;5046791;28;20036;-74
2023/05/04 01:54:13;;;;;;;17.20;11.30;;;;;;;11.46;64.53;95085.94;5046270;28;20110;-74
2023/05/04 01:56:39;;;;;;;16.35;11.32;;;;;;;11.33;64.79;95092.19;5045927;28;20495;-74
2023/05/04 01:59:04;;;;;;;13.57;10.80;;;;;;;11.41;64.24;95084.50;5046949;28;20055;-74
2023/05/04 02:01:30;;;;;;;14.27;11.57;;;;;;;11.41;64.56;95085.28;5047700;28;20041;-74
2023/05/04 02:03:55;;;;;;;16.33;11.55;;;;;;;11.38;64.40;95088.13;5045759;28;20089;-74
2023/05/04 02:06:21;;;;;;;16.70;12.20;;;;;;;11.46;64.29;95094.19;5044689;28;20079;-73
2023/05/04 02:08:46;;;;;;;16.63;11.57;;;;;;;11.50;64.17;95092.88;5028669;28;20107;-73
2023/05/04 02:11:13;;;;;;;17.55;11.43;;;;;;;11.51;64.00;95086.16;5045187;28;20029;-73
2023/05/04 02:13:39;;;;;;;15.75;11.63;;;;;;;11.54;64.03;95090.03;5045985;28;20078;-74
2023/05/04 02:16:05;;;;;;;12.35;10.30;;;;;;;11.41;64.03;95090.00;5045142;28;20112;-73
2023/05/04 02:18:30;;;;;;;14.55;10.85;;;;;;;11.37;64.01;95086.59;5043362;28;20138;-74
2023/05/04 02:20:56;;;;;;;14.30;10.13;;;;;;;11.31;64.34;95085.59;5045317;28;20021;-73
2023/05/04 02:23:21;;;;;;;13.82;10.60;;;;;;;11.12;64.84;95093.56;5044296;28;20107;-73
2023/05/04 02:25:47;;;;;;;14.65;10.95;;;;;;;10.89;65.71;95093.84;5045494;28;20025;-73
2023/05/04 02:28:12;;;;;;;14.70;11.23;;;;;;;10.90;66.03;95089.91;5043114;28;20029;-73
2023/05/04 02:30:37;;;;;;;14.50;10.68;;;;;;;10.89;65.69;95085.59;5046157;28;20056;-73
2023/05/04 02:33:03;;;;;;;15.05;10.73;;;;;;;10.84;65.83;95083.41;5027766;28;20028;-74
2023/05/04 02:35:28;;;;;;;12.68;10.13;;;;;;;10.71;65.71;95079.81;5043686;28;20120;-73
2023/05/04 02:37:54;;;;;;;14.90;10.93;;;;;;;10.80;65.85;95088.97;5046056;28;20506;-74
2023/05/04 02:40:19;;;;;;;14.88;9.88;;;;;;;10.82;66.05;95092.06;5042898;28;20036;-73
2023/05/04 02:42:44;;;;;;;17.15;11.00;;;;;;;10.79;65.84;95087.44;5046397;28;20108;-73
2023/05/04 02:45:10;;;;;;;13.27;10.50;;;;;;;10.58;66.54;95091.53;5044298;28;20021;-73
2023/05/04 02:47:36;;;;;;;14.15;9.57;;;;;;;10.72;66.00;95092.34;5044495;28;20078;-73
2023/05/04 02:50:01;;;;;;;13.77;9.85;;;;;;;10.60;66.35;95091.84;5044305;28;20025;-74
2023/05/04 02:52:27;;;;;;;11.25;9.20;;;;;;;10.61;66.16;95093.41;5045377;28;20056;-74
2023/05/04 02:54:52;;;;;;;13.60;10.00;;;;;;;10.63;66.01;95096.50;5045916;28;20411;-74
2023/05/04 02:57:17;;;;;;;11.55;9.07;;;;;;;10.62;65.91;95099.69;5044639;28;20415;-73
2023/05/04 02:59:43;;;;;;;10.75;8.57;;;;;;;10.72;65.46;95101.38;5046071;28;20013;-73
2023/05/04 03:02:08;;;;;;;10.63;8.23;;;;;;;10.67;65.84;95099.16;5042279;28;20422;-74
2023/05/04 03:04:34;;;;;;;9.38;8.23;;;;;;;10.75;65.62;95103.25;5027693;28;20385;-74
2023/05/04 03:06:59;;;;;;;10.27;7.88;;;;;;;10.80;65.44;95099.97;5043916;28;20508;-74
2023/05/04 03:09:24;;;;;;;14.63;8.65;;;;;;;10.82;65.42;95110.53;5045486;28;20147;-74
2023/05/04 03:11:50;;;;;;;9.60;7.32;;;;;;;10.77;65.52;95105.56;5043157;28;20013;-74
2023/05/04 03:14:15;;;;;;;8.18;7.13;;;;;;;10.85;65.30;95117.94;5043721;28;20025;-74
2023/05/04 03:16:41;;;;;;;11.07;7.53;;;;;;;10.84;65.23;95111.66;5045370;28;20358;-75
2023/05/04 03:19:06;;;;;;;7.70;6.60;;;;;;;10.92;64.91;95119.72;5042163;28;20314;-74
2023/05/04 03:21:31;;;;;;;7.90;6.95;;;;;;;10.97;64.39;95116.44;5045359;28;20025;-74
2023/05/04 03:23:57;;;;;;;11.30;6.65;;;;;;;10.98;64.54;95121.50;5042006;28;20086;-74
2023/05/04 03:26:24;;;;;;;8.18;6.82;;;;;;;10.92;63.96;95126.00;5045266;28;20261;-74
2023/05/04 03:28:49;;;;;;;8.75;6.63;;;;;;;10.78;64.35;95113.41;5044246;28;20029;-74
2023/05/04 03:31:15;;;;;;;8.80;6.15;;;;;;;10.74;64.56;95120.97;5044383;28;20032;-73
2023/05/04 03:33:40;;;;;;;7.00;5.78;;;;;;;10.64;64.96;95122.78;5043875;28;20290;-74
2023/05/04 03:36:06;;;;;;;6.80;5.50;;;;;;;10.72;64.72;95119.84;5043154;28;20027;-74
2023/05/04 03:38:31;;;;;;;9.30;6.15;;;;;;;10.80;64.50;95129.47;5045716;28;20029;-74
2023/05/04 03:40:57;;;;;;;7.07;5.45;;;;;;;10.85;64.36;95132.44;5043818;28;20415;-74
2023/05/04 03:43:22;;;;;;;6.57;5.40;;;;;;;10.81;64.77;95131.78;5045443;28;20081;-75
2023/05/04 03:45:47;;;;;;;10.82;6.07;;;;;;;10.94;64.30;95137.31;5041728;28;20036;-73
2023/05/04 03:48:13;;;;;;;8.27;6.00;;;;;;;10.92;64.73;95133.47;5027358;28;20207;-73
2023/05/04 03:50:38;;;;;;;7.18;5.95;;;;;;;10.97;64.60;95138.44;5045413;28;20057;-73
2023/05/04 03:53:04;;;;;;;7.28;6.07;;;;;;;10.92;64.95;95149.97;5044719;28;20033;-74
2023/05/04 03:55:30;;;;;;;8.13;7.25;;;;;;;10.85;65.29;95148.97;5043266;28;20040;-74
2023/05/04 03:57:55;;;;;;;8.40;6.60;;;;;;;10.78;65.75;95146.41;5042452;28;20020;-76
2023/05/04 04:00:21;;;;;;;9.00;6.68;;;;;;;10.80;66.01;95152.22;5044832;28;20112;-74
2023/05/04 04:02:46;;;;;;;9.40;7.07;;;;;;;10.92;65.96;95147.22;5043777;28;20025;-74
2023/05/04 04:05:11;;;;;;;8.65;6.38;;;;;;;10.90;66.00;95145.69;5049595;28;20025;-73
2023/05/04 04:07:37;;;;;;;9.95;7.03;;;;;;;10.81;66.06;95147.50;5045577;28;20055;-73
2023/05/04 04:10:03;;;;;;;8.40;6.50;;;;;;;10.86;65.95;95150.50;5047575;28;20104;-72
2023/05/04 04:12:28;;;;;;;7.50;6.25;;;;;;;10.80;66.20;95151.47;5046549;28;20036;-73
2023/05/04 04:14:53;;;;;;;8.70;7.00;;;;;;;10.85;66.03;95148.97;5047795;28;20414;-73
2023/05/04 04:17:19;;;;;;;11.27;6.35;;;;;;;10.82;66.09;95155.31;5048528;28;20029;-74
2023/05/04 04:19:45;;;;;;;8.32;7.35;;;;;;;10.97;65.85;95163.19;5046907;28;20458;-74
2023/05/04 04:22:10;;;;;;;8.68;6.57;;;;;;;11.02;65.94;95157.16;5048903;28;20506;-73
2023/05/04 04:24:35;;;;;;;8.13;5.97;;;;;;;11.10;65.52;95161.25;5046484;28;20025;-73
2023/05/04 04:27:01;;;;;;;10.15;6.35;;;;;;;11.17;65.26;95166.56;5048874;28;20438;-73
2023/05/04 04:29:26;;;;;;;8.45;6.18;;;;;;;11.23;64.98;95164.06;5046938;28;20037;-73
2023/05/04 04:31:52;;;;;;;9.90;6.38;;;;;;;11.26;65.08;95168.69;5047961;28;20021;-74
2023/05/04 04:34:17;;;;;;;6.93;5.93;;;;;;;11.25;64.85;95159.66;5031262;28;20558;-74
2023/05/04 04:36:43;;;;;;;7.85;6.25;;;;;;;11.29;64.80;95157.56;5045618;28;20495;-74
2023/05/04 04:39:09;;;;;;;6.93;6.10;;;;;;;11.34;64.91;95172.78;5047321;28;20025;-73
2023/05/04 04:41:35;;;;;;;8.93;6.50;;;;;;;11.32;65.04;95173.22;5045020;28;20025;-75
2023/05/04 04:44:01;;;;;;;8.13;6.18;;;;;;;11.24;65.28;95182.09;5049149;28;20126;-74
2023/05/04 04:46:26;;;;;;;9.48;6.75;;;;;;;11.29;65.25;95185.09;5033812;28;20040;-73
2023/05/04 04:48:52;;;;;;;6.72;5.68;;;;;;;11.28;65.34;95180.03;5048447;28;20025;-74
2023/05/04 04:51:17;;;;;;;7.65;6.20;;;;;;;11.33;65.41;95180.28;5045633;28;20104;-75
2023/05/04 04:53:43;;;;;;;9.50;6.20;;;;;;;11.37;65.17;95191.97;5047411;28;20028;-73
2023/05/04 04:56:09;;;;;;;6.60;5.82;;;;;;;11.40;65.22;95191.06;5047879;28;20055;-74
2023/05/04 04:58:34;;;;;;;9.98;7.07;;;;;;;11.40;65.58;95198.56;5045168;28;20109;-74
2023/05/04 05:01:02;;;;;;;8.98;6.75;;;;;;;11.40;65.70;95199.34;5046541;28;20123;-75
2023/05/04 05:03:27;;;;;;;9.20;7.47;;;;;;;11.46;65.99;95199.56;5044822;28;20032;-74
2023/05/04 05:05:54;;;;;;;8.02;6.25;;;;;;;11.52;65.85;95202.56;5047906;28;20025;-73
2023/05/04 05:08:19;;;;;;;8.02;6.20;;;;;;;11.43;66.05;95189.44;5044927;28;20016;-74
2023/05/04 05:10:44;;;;;;;8.00;6.45;;;;;;;11.52;65.92;95203.34;5047925;28;20407;-74
2023/05/04 05:13:10;;;;;;;11.55;6.43;;;;;;;11.52;65.95;95200.56;5044992;28;20103;-73
2023/05/04 05:15:35;;;;;;;6.85;5.60;;;;;;;11.53;65.88;95209.63;5045101;28;20048;-74
2023/05/04 05:18:01;;;;;;;6.40;5.40;;;;;;;11.51;66.08;95209.28;5046045;28;20475;-74
2023/05/04 05:20:26;;;;;;;8.52;5.93;;;;;;;11.52;65.87;95208.84;5044454;28;20090;-74
2023/05/04 05:22:51;;;;;;;6.80;5.55;;;;;;;11.53;65.90;95210.41;5046379;28;20418;-73
2023/05/04 05:25:17;;;;;;;8.27;5.80;;;;;;;11.59;65.95;95210.63;5045661;28;20025;-73
2023/05/04 05:27:43;;;;;;;7.28;5.68;;;;;;;11.58;66.23;95211.81;5047879;28;20021;-74
2023/05/04 05:30:09;;;;;;;7.57;6.05;;;;;;;11.62;66.20;95205.00;5044661;28;20024;-74
2023/05/04 05:32:34;;;;;;;8.18;6.18;;;;;;;11.60;66.06;95212.94;5045612;28;20025;-73
2023/05/04 05:35:00;;;;;;;8.10;6.25;;;;;;;11.67;66.12;95215.50;5037854;28;20072;-74
2023/05/04 05:37:26;;;;;;;8.48;6.32;;;;;;;11.69;65.98;95218.56;5027699;28;20053;-75
2023/05/04 05:39:51;;;;;;;10.48;6.35;;;;;;;11.74;66.03;95220.03;5032866;28;20021;-72
2023/05/04 05:42:17;;;;;;;7.78;5.88;;;;;;;11.63;65.86;95225.06;5042404;28;20079;-73
2023/05/04 05:44:43;;;;;;;8.48;6.25;;;;;;;11.64;66.02;95232.09;5047615;28;20525;-72
2023/05/04 05:47:08;;;;;;;6.70;5.70;;;;;;;11.76;65.80;95230.63;5044146;28;20021;-73
2023/05/04 05:49:33;;;;;;;9.75;5.80;;;;;;;11.82;66.07;95229.66;5047206;28;20548;-72
2023/05/04 05:51:59;;;;;;;8.35;6.35;;;;;;;11.87;65.86;95228.34;5046101;28;20455;-74
2023/05/04 05:54:25;;;;;;;9.90;6.25;;;;;;;11.84;66.04;95229.22;5039034;28;20176;-74
2023/05/04 05:56:50;;;;;;;9.48;6.55;;;;;;;11.91;65.98;95231.75;5025877;28;20416;-73
2023/05/04 05:59:16;;;;;;;12.68;6.10;;;;;;;11.96;65.71;95231.22;5024451;28;20068;-73
2023/05/04 06:01:41;;;;;;;9.40;6.20;;;;;;;12.01;65.75;95233.44;5025831;28;20430;-75
2023/05/04 06:04:07;;;;;;;7.95;6.68;;;;;;;12.12;65.48;95233.13;5025114;28;20022;-74
2023/05/04 06:06:32;;;;;;;11.20;6.35;;;;;;;12.21;65.22;95233.22;5027227;28;20032;-74
2023/05/04 06:08:59;;;;;;;9.98;6.80;;;;;;;12.29;65.06;95231.03;5025101;28;20408;-74
2023/05/04 06:11:25;;;;;;;11.02;6.72;;;;;;;12.37;64.47;95240.63;5040816;28;20036;-73
2023/05/04 06:13:51;;;;;;;8.02;6.63;;;;;;;12.42;64.39;95224.31;5046271;28;20025;-74
2023/05/04 06:16:16;;;;;;;7.15;5.90;;;;;;;12.57;64.28;95232.16;5040910;28;20412;-73
2023/05/04 06:18:41;;;;;;;7.90;6.05;;;;;;;12.61;63.08;95238.28;5034465;28;20033;-74
2023/05/04 06:21:07;;;;;;;8.73;6.03;;;;;;;12.54;63.31;95247.56;5044660;28;20020;-74
2023/05/04 06:23:33;;;;;;;8.32;5.82;;;;;;;12.53;63.01;95237.75;5046873;28;20029;-74
2023/05/04 06:25:58;;;;;;;7.30;5.88;;;;;;;12.61;63.23;95254.84;5032525;28;20021;-74
2023/05/04 06:28:24;;;;;;;9.82;5.90;;;;;;;12.72;63.56;95244.25;5037272;28;20480;-74
2023/05/04 06:30:49;;;;;;;6.43;4.95;;;;;;;12.44;62.11;95246.72;5023705;28;20048;-74
2023/05/04 06:33:15;;;;;;;7.35;5.25;;;;;;;12.18;63.03;95248.66;5026402;28;20108;-74
2023/05/04 06:35:40;;;;;;;8.40;5.75;;;;;;;12.32;63.56;95241.94;5028507;28;20091;-74
2023/05/04 06:38:06;;;;;;;9.45;5.55;;;;;;;12.49;63.57;95248.88;5023388;28;20021;-74
2023/05/04 06:40:31;;;;;;;5.95;4.55;;;;;;;12.34;61.97;95239.53;5025070;28;20465;-73
2023/05/04 06:42:57;;;;;;;8.07;5.05;;;;;;;12.62;62.33;95242.63;5023877;28;20033;-73
2023/05/04 06:45:22;;;;;;;5.13;3.97;;;;;;;12.32;62.42;95241.16;5026839;28;20377;-73
2023/05/04 06:47:47;;;;;;;7.18;5.07;;;;;;;12.47;62.87;95232.03;5024577;28;20033;-73
2023/05/04 06:50:13;;;;;;;6.43;4.75;;;;;;;12.60;62.34;95248.56;5024353;28;20037;-74
2023/05/04 06:52:40;;;;;;;6.38;4.15;;;;;;;12.72;61.58;95241.50;5025323;28;20041;-74
2023/05/04 06:55:06;;;;;;;5.85;4.68;;;;;;;12.85;61.77;95247.00;5023586;28;20526;-74
2023/05/04 06:57:31;;;;;;;5.60;4.63;;;;;;;13.00;61.70;95248.84;5026141;28;20026;-74
2023/05/04 06:59:57;;;;;;;7.70;5.13;;;;;;;13.12;62.02;95247.25;5022852;28;20464;-75
2023/05/04 07:02:23;;;;;;;6.68;4.60;;;;;;;13.19;61.32;95249.81;5024500;28;20038;-73
2023/05/04 07:04:48;;;;;;;6.75;4.80;;;;;;;13.15;59.79;95237.34;5022419;28;20025;-73
2023/05/04 07:07:13;;;;;;;7.00;4.85;;;;;;;13.10;59.97;95237.88;5024333;28;20025;-73
2023/05/04 07:09:40;;;;;;;6.38;4.05;;;;;;;13.12;60.52;95240.97;5024394;28;20024;-74
2023/05/04 07:12:06;;;;;;;7.30;4.20;;;;;;;13.12;60.20;95238.22;5023911;28;20033;-74
2023/05/04 07:14:32;;;;;;;6.15;4.40;;;;;;;13.14;59.75;95233.03;5025344;28;20106;-73
2023/05/04 07:16:59;;;;;;;6.57;4.35;;;;;;;12.85;58.35;95238.72;5024128;28;20021;-74
2023/05/04 07:19:24;;;;;;;7.78;4.63;;;;;;;12.60;59.57;95237.53;5025466;28;20029;-74
2023/05/04 07:21:49;;;;;;;5.25;4.03;;;;;;;12.71;59.79;95240.72;5021939;28;20224;-75
2023/05/04 07:24:15;;;;;;;6.00;4.20;;;;;;;12.43;60.24;95244.38;5024281;28;20040;-73
2023/05/04 07:26:40;;;;;;;7.28;4.95;;;;;;;12.48;60.34;95244.59;5023727;28;20037;-73
2023/05/04 07:29:05;;;;;;;6.45;5.00;;;;;;;12.56;60.06;95245.16;5027045;28;20052;-75
2023/05/04 07:31:32;;;;;;;6.78;5.20;;;;;;;12.44;59.78;95243.97;5024738;28;20033;-72
2023/05/04 07:33:57;;;;;;;5.80;4.63;;;;;;;12.20;60.72;95256.50;5024562;28;20032;-73
2023/05/04 07:36:25;;;;;;;6.78;5.40;;;;;;;12.04;61.04;95251.06;5025290;28;20030;-75
2023/05/04 07:38:51;;;;;;;6.68;4.88;;;;;;;11.73;61.46;95254.28;5022357;28;20029;-74
2023/05/04 07:41:16;;;;;;;9.80;5.82;;;;;;;11.62;61.82;95246.31;5025597;28;20025;-75
2023/05/04 07:43:41;;;;;;;6.32;4.78;;;;;;;11.49;62.84;95253.00;5021882;28;20136;-76
2023/05/04 07:46:07;;;;;;;6.95;5.13;;;;;;;11.40;63.46;95251.63;5007622;28;20103;-75
2023/05/04 07:48:33;;;;;;;10.52;6.35;;;;;;;11.56;63.49;95250.81;5023401;28;20443;-76
2023/05/04 07:50:58;;;;;;;6.97;5.40;;;;;;;11.67;63.40;95256.03;5023964;28;20108;-76
2023/05/04 07:53:25;;;;;;;9.43;5.97;;;;;;;11.73;63.35;95259.03;5023286;28;20125;-75
2023/05/04 07:55:53;;;;;;;7.82;5.70;;;;;;;11.70;62.53;95253.19;5023853;28;20084;-75
2023/05/04 07:58:18;;;;;;;7.60;5.70;;;;;;;11.34;63.55;95264.38;5024143;28;20018;-76
2023/05/04 08:00:44;;;;;;;8.40;6.63;;;;;;;11.23;63.98;95266.63;5022573;28;20041;-74
2023/05/04 08:03:09;;;;;;;7.55;5.97;;;;;;;11.29;64.09;95270.41;5024163;28;20029;-75
2023/05/04 08:05:35;;;;;;;7.90;5.95;;;;;;;11.37;64.13;95260.78;5023270;28;20040;-74
2023/05/04 08:08:00;;;;;;;10.73;6.40;;;;;;;11.40;64.26;95279.16;5024772;28;20464;-74
2023/05/04 08:10:26;;;;;;;12.77;7.15;;;;;;;11.57;64.17;95277.13;5023984;28;20519;-75
2023/05/04 08:12:51;;;;;;;6.90;5.78;;;;;;;11.71;63.70;95278.75;5022603;28;20506;-76
2023/05/04 08:15:17;;;;;;;9.30;6.38;;;;;;;11.46;63.50;95278.63;5023682;28;20049;-77
2023/05/04 08:17:43;;;;;;;10.45;6.68;;;;;;;11.26;64.44;95285.06;5022988;28;20415;-75
2023/05/04 08:20:08;;;;;;;8.00;6.35;;;;;;;11.17;65.03;95282.13;5007364;28;20037;-75
2023/05/04 08:22:34;;;;;;;10.07;6.68;;;;;;;11.12;65.67;95274.41;5022632;28;20053;-75
2023/05/04 08:25:00;;;;;;;10.48;6.80;;;;;;;11.09;65.78;95280.78;5028258;28;20374;-75
2023/05/04 08:27:25;;;;;;;10.20;7.15;;;;;;;11.23;65.76;95277.66;5022648;28;20424;-76
2023/05/04 08:29:51;;;;;;;8.43;6.57;;;;;;;11.19;66.03;95276.22;5023103;28;20137;-76
2023/05/04 08:32:16;;;;;;;9.45;6.70;;;;;;;11.12;66.28;95288.16;5023407;28;20095;-77
2023/05/04 08:34:42;;;;;;;10.52;7.07;;;;;;;11.33;66.10;95276.59;5023330;28;20509;-77
2023/05/04 08:37:07;;;;;;;10.35;7.35;;;;;;;11.52;65.84;95274.91;5007480;28;20026;-76
2023/05/04 08:39:32;;;;;;;11.55;7.30;;;;;;;11.69;65.64;95278.38;5022849;28;20033;-73
2023/05/04 08:41:58;;;;;;;10.80;8.07;;;;;;;11.81;65.38;95280.44;5025173;28;20143;-75
2023/05/04 08:44:23;;;;;;;12.27;7.30;;;;;;;11.58;65.02;95275.94;5022871;28;20025;-73
2023/05/04 08:46:52;;;;;;;10.57;8.07;;;;;;;11.88;64.19;95279.50;5006719;28;20026;-74
2023/05/04 08:49:19;;;;;;;9.50;7.93;;;;;;;12.10;64.17;95279.63;5026126;28;20028;-74
2023/05/04 08:51:45;;;;;;;8.52;6.80;;;;;;;12.10;63.09;95269.41;5025678;28;20442;-76
2023/05/04 08:54:10;;;;;;;15.23;6.40;;;;;;;12.01;62.48;95287.78;5037160;28;20044;-74
2023/05/04 08:56:37;;;;;;;9.75;7.47;;;;;;;11.86;63.52;95279.13;5044774;28;20025;-76
2023/05/04 08:59:02;;;;;;;9.27;7.18;;;;;;;11.86;63.74;95277.16;5047144;28;20039;-75
2023/05/04 09:01:29;;;;;;;10.57;7.35;;;;;;;12.09;63.35;95273.34;5027733;28;20496;-75
2023/05/04 09:03:55;;;;;;;10.82;7.88;;;;;;;12.10;62.46;95277.66;5030084;28;20021;-76
2023/05/04 09:06:21;;;;;;;9.50;6.90;;;;;;;12.22;62.42;95271.41;5045218;28;20112;-76
2023/05/04 09:08:46;;;;;;;10.68;7.93;;;;;;;12.50;62.31;95271.72;5046973;28;20036;-76
2023/05/04 09:11:13;;;;;;;10.10;7.55;;;;;;;12.55;61.38;95270.41;5047546;28;20052;-76
2023/05/04 09:13:38;;;;;;;9.00;6.72;;;;;;;12.68;60.26;95271.97;5046417;28;20025;-75
2023/05/04 09:16:04;;;;;;;9.90;7.25;;;;;;;12.84;60.25;95271.03;5048015;28;20372;-75
2023/05/04 09:18:40;;;;;;;7.28;6.35;;;;;;;12.61;59.38;95272.16;5052369;28;20526;-75
2023/05/04 09:21:06;;;;;;;7.53;5.85;;;;;;;12.69;59.13;95281.78;5046932;28;20027;-77
2023/05/04 09:23:32;;;;;;;7.88;6.40;;;;;;;12.76;59.16;95275.25;5044732;28;20116;-77
2023/05/04 09:25:57;;;;;;;7.68;6.10;;;;;;;12.90;59.44;95271.25;5045937;28;20029;-74
2023/05/04 09:28:34;;;;;;;7.28;5.97;;;;;;;12.89;59.14;95270.47;5045460;28;20044;-74
2023/05/04 09:31:00;;;;;;;9.60;6.50;;;;;;;13.03;58.71;95272.03;5026492;28;20069;-74
2023/05/04 09:33:29;;;;;;;10.02;6.88;;;;;;;13.08;58.66;95270.69;5026719;28;20060;-75
2023/05/04 09:35:56;;;;;;;9.82;6.38;;;;;;;12.80;58.87;95259.38;5023869;28;20037;-74
2023/05/04 09:38:28;;;;;;;9.63;5.90;;;;;;;12.91;58.44;95270.06;5028145;28;20022;-75
2023/05/04 09:40:54;;;;;;;7.80;5.82;;;;;;;12.86;59.07;95262.34;5024308;28;20113;-74
2023/05/04 09:43:19;;;;;;;8.15;6.40;;;;;;;12.94;58.66;95264.41;5025926;28;20036;-74
2023/05/04 09:45:46;;;;;;;9.88;7.65;;;;;;;12.99;58.83;95257.56;5026612;28;20079;-73
2023/05/04 09:48:24;;;;;;;10.80;7.22;;;;;;;13.19;59.07;95266.38;5025967;28;20056;-74
2023/05/04 09:50:54;;;;;;;9.75;7.25;;;;;;;13.14;58.69;95268.91;5026225;28;20044;-74
2023/05/04 09:53:27;;;;;;;8.48;6.68;;;;;;;12.92;58.65;95264.09;5024052;28;20400;-75
2023/05/04 09:56:18;;;;;;;11.23;7.18;;;;;;;12.79;59.03;95257.03;5025823;28;20025;-75
2023/05/04 09:58:44;;;;;;;12.48;7.70;;;;;;;12.96;59.25;95264.75;5027474;28;20034;-75
2023/05/04 10:01:10;;;;;;;10.27;7.43;;;;;;;13.03;59.39;95261.75;5023329;28;20107;-75
2023/05/04 10:03:35;;;;;;;14.15;7.75;;;;;;;13.12;59.13;95261.06;5025952;28;20052;-76
2023/05/04 10:06:04;;;;;;;14.85;8.88;;;;;;;13.30;58.42;95257.72;5023414;28;20473;-77
2023/05/04 10:08:30;;;;;;;13.15;9.85;;;;;;;13.46;58.38;95260.31;5025823;28;20029;-75
2023/05/04 10:10:56;;;;;;;14.60;9.50;;;;;;;13.49;58.31;95253.91;5025676;28;20079;-79
2023/05/04 10:13:22;;;;;;;15.07;10.13;;;;;;;13.64;58.32;95254.16;5035498;28;20039;-76
2023/05/04 10:16:11;;;;;;;11.80;9.70;;;;;;;13.75;58.14;95254.56;5007993;28;20535;-75
2023/05/04 10:18:57;;;;;;;10.30;7.15;;;;;;;13.38;57.22;95261.03;5024187;28;20306;-76
2023/05/04 10:21:35;;;;;;;11.25;8.20;;;;;;;13.37;57.38;95262.25;5025683;28;20037;-75
2023/05/04 10:24:13;;;;;;;12.70;8.00;;;;;;;13.40;57.61;95250.28;5024817;28;20039;-74
2023/05/04 10:26:49;;;;;;;14.23;9.32;;;;;;;13.74;57.69;95252.25;5025978;28;20026;-73
2023/05/04 10:29:22;;;;;;;15.05;9.13;;;;;;;13.93;56.90;95250.38;5025104;28;20025;-74
2023/05/04 10:31:48;;;;;;;11.30;8.88;;;;;;;14.01;57.32;95248.91;5024778;28;20488;-76
2023/05/04 10:34:33;;;;;;;11.18;8.65;;;;;;;14.23;56.91;95241.34;5024923;28;20025;-74
2023/05/04 10:37:00;;;;;;;15.23;9.40;;;;;;;14.38;56.69;95238.78;5023448;28;20025;-75
2023/05/04 10:39:27;;;;;;;12.30;8.45;;;;;;;14.48;56.10;95248.69;5008165;28;20030;-74
2023/05/04 10:42:00;;;;;;;11.43;8.50;;;;;;;14.58;54.52;95247.53;5025560;28;20034;-75
2023/05/04 10:44:26;;;;;;;15.02;10.15;;;;;;;14.32;55.24;95243.38;5025504;28;20036;-75
2023/05/04 10:47:10;;;;;;;12.50;9.02;;;;;;;14.34;54.95;95243.72;5036695;28;20120;-75
2023/05/04 10:49:35;;;;;;;;;;;;;;;14.25;55.14;95240.88;5044270;28;20037;-76
2023/05/04 10:52:07;;;;;;;12.68;8.63;;;;;;;14.01;55.92;95243.38;5044838;28;19936;-73
2023/05/04 10:54:35;;;;;;;12.93;8.95;;;;;;;13.84;55.98;95244.81;5043180;28;20137;-73
2023/05/04 10:57:05;;;;;;;13.43;8.82;;;;;;;13.94;55.55;95243.66;5043849;28;20036;-72
2023/05/04 10:59:31;;;;;;;11.60;8.85;;;;;;;13.98;55.59;95245.03;5044242;28;20020;-73
2023/05/04 11:01:57;;;;;;;12.15;9.07;;;;;;;13.83;56.38;95246.78;5044191;28;20123;-74
2023/05/04 11:04:23;;;;;;;14.20;9.50;;;;;;;13.83;55.97;95244.03;5046049;28;20135;-74
2023/05/04 11:07:02;;;;;;;14.77;9.82;;;;;;;14.01;56.08;95243.38;5045745;28;20066;-74
2023/05/04 11:09:34;;;;;;;14.63;8.98;;;;;;;13.89;56.16;95242.22;5045161;28;20029;-74
2023/05/04 11:12:01;;;;;;;13.38;9.43;;;;;;;14.19;55.60;95243.47;5044591;28;20029;-75
2023/05/04 11:14:27;;;;;;;15.48;9.90;;;;;;;14.44;55.66;95236.97;5043544;28;20029;-76
2023/05/04 11:17:05;;;;;;;13.55;9.57;;;;;;;14.65;55.35;95243.69;5044210;28;20094;-75
2023/05/04 11:19:32;;;;;;;14.15;9.75;;;;;;;14.74;54.81;95245.75;5042316;28;20135;-75
2023/05/04 11:21:57;;;;;;;12.13;9.07;;;;;;;14.95;54.39;95246.84;5044463;28;20107;-74
2023/05/04 11:24:23;;;;;;;14.80;9.68;;;;;;;15.05;53.48;95240.13;5043739;28;20128;-76
2023/05/04 11:26:48;;;;;;;15.35;9.95;;;;;;;15.21;53.65;95250.16;5044208;28;20028;-76